Time;durP1;ratioP1;P1;durP2;ratioP2;P2;SDS_P1;SDS_P2;PMS_P1;PMS_P2;Temp;Humidity;BMP_temperature;BMP_pressure;BME280_temperature;BME280_humidity;BME280_pressure;Samples;Min_cycle;Max_cycle;Signal;HPM_P1;HPM_P2
2022/09/18 00:02:36;;;;;;;9.10;2.37;;;;;;;;;;10226513;28;20023;-73
2022/09/18 00:07:36;;;;;;;11.13;2.20;;;;;;;;;;10242318;28;20027;-74
2022/09/18 00:12:36;;;;;;;7.57;2.80;;;;;;;;;;10227221;29;20034;-78
2022/09/18 00:17:37;;;;;;;5.20;1.70;;;;;;;;;;10242972;29;20027;-73
2022/09/18 00:22:38;;;;;;;7.10;1.58;;;;;;;;;;10243339;29;20023;-74
2022/09/18 00:27:38;;;;;;;5.05;2.42;;;;;;;;;;10242802;29;20011;-74
2022/09/18 00:32:38;;;;;;;4.53;1.15;;;;;;;;;;10225491;29;20043;-74
2022/09/18 00:37:38;;;;;;;1.10;0.98;;;;;;;;;;10241501;28;20753;-74
2022/09/18 00:42:39;;;;;;;2.53;1.27;;;;;;;;;;10241866;29;20030;-74
2022/09/18 00:47:47;;;;;;;1.60;0.93;;;;;;;;;;10231201;28;20031;-74
2022/09/18 00:52:55;;;;;;;1.00;0.63;;;;;;;;;;10234332;29;20020;-74
2022/09/18 00:57:56;;;;;;;5.07;0.95;;;;;;;;;;10232942;29;20027;-76
2022/09/18 01:02:57;;;;;;;1.58;0.60;;;;;;;;;;10233266;29;20038;-73
2022/09/18 01:08:06;;;;;;;0.50;0.40;;;;;;;;;;10250385;29;20031;-73
2022/09/18 01:13:10;;;;;;;2.47;0.45;;;;;;;;;;10249118;29;20027;-74
2022/09/18 01:18:25;;;;;;;6.10;4.68;;;;;;;;;;10248548;29;20498;-74
2022/09/18 01:23:26;;;;;;;0.40;0.38;;;;;;;;;;10224202;29;20026;-74
2022/09/18 01:28:49;;;;;;;3.58;0.25;;;;;;;;;;10232787;29;20401;-77
2022/09/18 01:34:08;;;;;;;0.65;0.30;;;;;;;;;;10200440;29;20070;-74
2022/09/18 01:39:08;;;;;;;;;;;;;;;;;;10209256;29;20030;-75
2022/09/18 01:44:11;;;;;;;0.30;0.00;;;;;;;;;;10223732;29;19911;-74
2022/09/18 01:49:15;;;;;;;0.20;0.00;;;;;;;;;;10208202;29;20012;-77
2022/09/18 01:54:17;;;;;;;1.30;0.10;;;;;;;;;;10207734;29;20015;-78
2022/09/18 01:59:21;;;;;;;0.28;0.20;;;;;;;;;;10206940;29;20509;-74
2022/09/18 02:04:24;;;;;;;0.30;0.30;;;;;;;;;;10207651;29;20028;-77
2022/09/18 02:09:24;;;;;;;0.25;0.25;;;;;;;;;;10223122;29;20023;-76
2022/09/18 02:14:30;;;;;;;0.70;0.40;;;;;;;;;;10208273;29;20040;-73
2022/09/18 02:19:51;;;;;;;0.45;0.20;;;;;;;;;;10207328;29;20110;-73
2022/09/18 02:24:54;;;;;;;0.77;0.40;;;;;;;;;;10199902;29;20043;-73
2022/09/18 02:29:55;;;;;;;2.05;0.30;;;;;;;;;;10206287;29;20340;-77
2022/09/18 02:34:55;;;;;;;2.30;0.50;;;;;;;;;;10205941;29;20044;-73
2022/09/18 02:40:11;;;;;;;1.60;1.10;;;;;;;;;;10187363;29;20027;-74
2022/09/18 02:45:26;;;;;;;4.00;0.60;;;;;;;;;;10214885;29;20310;-73
2022/09/18 02:50:39;;;;;;;1.45;1.00;;;;;;;;;;10220545;29;20063;-74
2022/09/18 02:55:43;;;;;;;1.25;0.80;;;;;;;;;;10206676;29;20027;-72
2022/09/18 03:00:44;;;;;;;2.92;1.15;;;;;;;;;;10204259;29;20023;-73
2022/09/18 03:05:44;;;;;;;1.50;0.90;;;;;;;;;;10204760;29;20035;-74
2022/09/18 03:10:45;;;;;;;2.53;1.30;;;;;;;;;;10204394;29;20513;-74
2022/09/18 03:15:45;;;;;;;1.00;0.90;;;;;;;;;;10204308;29;20019;-75
2022/09/18 03:20:46;;;;;;;4.45;1.20;;;;;;;;;;10204763;29;20509;-74
2022/09/18 03:25:47;;;;;;;2.22;1.60;;;;;;;;;;10204340;29;20085;-74
2022/09/18 03:30:49;;;;;;;1.77;1.33;;;;;;;;;;10205162;29;20028;-73
2022/09/18 03:35:49;;;;;;;1.63;1.23;;;;;;;;;;10227976;28;20394;-74
2022/09/18 03:40:49;;;;;;;2.53;1.38;;;;;;;;;;10227469;29;20041;-73
2022/09/18 03:45:50;;;;;;;1.52;1.33;;;;;;;;;;10241618;28;20122;-74
2022/09/18 03:50:50;;;;;;;2.10;1.63;;;;;;;;;;10227717;29;20117;-73
2022/09/18 03:55:51;;;;;;;3.40;2.17;;;;;;;;;;10242373;28;20019;-74
2022/09/18 04:00:51;;;;;;;1.20;1.10;;;;;;;;;;10243696;28;20023;-74
2022/09/18 04:05:51;;;;;;;2.22;1.58;;;;;;;;;;10242856;29;20066;-75
2022/09/18 04:10:52;;;;;;;4.33;2.60;;;;;;;;;;10243545;29;20019;-73
2022/09/18 04:15:52;;;;;;;4.03;2.40;;;;;;;;;;10226407;29;20074;-77
2022/09/18 04:20:53;;;;;;;4.10;2.30;;;;;;;;;;10241502;28;20031;-75
2022/09/18 04:25:53;;;;;;;2.88;2.13;;;;;;;;;;10225354;28;20465;-77
2022/09/18 04:30:53;;;;;;;2.72;2.13;;;;;;;;;;10241530;29;20478;-72
2022/09/18 04:35:55;;;;;;;4.38;2.75;;;;;;;;;;10241660;28;20409;-72
2022/09/18 04:40:56;;;;;;;7.22;2.63;;;;;;;;;;10241900;28;20030;-73
2022/09/18 04:45:56;;;;;;;2.47;1.97;;;;;;;;;;10225816;29;20504;-72
2022/09/18 04:50:56;;;;;;;3.15;2.00;;;;;;;;;;10226094;29;20335;-77
2022/09/18 04:55:56;;;;;;;4.68;2.33;;;;;;;;;;10239888;28;20114;-75
2022/09/18 05:00:57;;;;;;;2.80;2.20;;;;;;;;;;10224684;29;20034;-72
2022/09/18 05:05:57;;;;;;;2.88;1.98;;;;;;;;;;10221304;29;20405;-72
2022/09/18 05:10:57;;;;;;;2.58;2.00;;;;;;;;;;10223674;28;20126;-75
2022/09/18 05:15:58;;;;;;;1.98;1.50;;;;;;;;;;10239786;28;20027;-73
2022/09/18 05:21:02;;;;;;;2.13;1.43;;;;;;;;;;10240393;28;20022;-73
2022/09/18 05:26:02;;;;;;;3.08;1.95;;;;;;;;;;10225375;29;20109;-76
2022/09/18 05:31:03;;;;;;;2.80;2.03;;;;;;;;;;10223385;28;20049;-74
2022/09/18 05:36:04;;;;;;;2.38;1.67;;;;;;;;;;10230650;28;20058;-72
2022/09/18 05:41:04;;;;;;;2.42;1.67;;;;;;;;;;10230314;28;20550;-74
2022/09/18 05:46:05;;;;;;;3.13;2.22;;;;;;;;;;10231422;29;20022;-75
2022/09/18 05:51:05;;;;;;;3.88;1.90;;;;;;;;;;10245449;29;20472;-74
2022/09/18 05:56:05;;;;;;;2.23;1.80;;;;;;;;;;10229255;29;20062;-73
2022/09/18 06:01:06;;;;;;;2.13;1.38;;;;;;;;;;10224768;29;20024;-73
2022/09/18 06:06:06;;;;;;;4.28;1.63;;;;;;;;;;10228034;29;20023;-75
2022/09/18 06:11:07;;;;;;;3.45;2.25;;;;;;;;;;10225630;28;20426;-73
2022/09/18 06:16:07;;;;;;;4.38;2.25;;;;;;;;;;10245171;29;20027;-73
2022/09/18 06:21:08;;;;;;;3.53;2.00;;;;;;;;;;10247311;28;20087;-75
2022/09/18 06:26:09;;;;;;;3.85;2.05;;;;;;;;;;10230444;29;20019;-76
2022/09/18 06:31:09;;;;;;;4.00;1.83;;;;;;;;;;10228597;29;20155;-74
2022/09/18 06:36:12;;;;;;;3.30;1.52;;;;;;;;;;10244551;29;20190;-72
2022/09/18 06:41:12;;;;;;;1.42;1.25;;;;;;;;;;10228146;28;20485;-73
2022/09/18 06:46:13;;;;;;;1.77;1.27;;;;;;;;;;10245493;28;20019;-74
2022/09/18 06:51:13;;;;;;;2.72;1.77;;;;;;;;;;10243823;28;20019;-74
2022/09/18 06:56:13;;;;;;;4.68;1.70;;;;;;;;;;10237989;29;20030;-76
2022/09/18 07:01:13;;;;;;;2.10;1.30;;;;;;;;;;10208424;28;20011;-72
2022/09/18 07:06:14;;;;;;;2.80;1.10;;;;;;;;;;10221878;29;20031;-74
2022/09/18 07:11:14;;;;;;;2.40;1.85;;;;;;;;;;10237525;29;20042;-72
2022/09/18 07:16:14;;;;;;;1.93;1.20;;;;;;;;;;10233555;28;20043;-73
2022/09/18 07:21:15;;;;;;;1.60;1.05;;;;;;;;;;10217443;29;20030;-73
2022/09/18 07:26:15;;;;;;;3.13;0.77;;;;;;;;;;10231815;28;20027;-74
2022/09/18 07:31:15;;;;;;;1.80;0.95;;;;;;;;;;10234620;29;20407;-75
2022/09/18 07:36:15;;;;;;;1.73;1.10;;;;;;;;;;10217514;28;20569;-74
2022/09/18 07:41:16;;;;;;;3.17;1.20;;;;;;;;;;10212213;29;20066;-74
2022/09/18 07:46:16;;;;;;;1.95;1.42;;;;;;;;;;10232507;28;20027;-74
2022/09/18 07:51:16;;;;;;;1.38;0.90;;;;;;;;;;10215725;28;20033;-74
2022/09/18 07:56:17;;;;;;;1.40;1.10;;;;;;;;;;10218070;28;20114;-73
2022/09/18 08:01:17;;;;;;;1.73;0.98;;;;;;;;;;10235785;28;20023;-73
2022/09/18 08:06:17;;;;;;;1.10;0.75;;;;;;;;;;10216007;29;20486;-73
2022/09/18 08:11:17;;;;;;;5.00;1.30;;;;;;;;;;10218567;29;20031;-75
2022/09/18 08:16:17;;;;;;;3.65;0.95;;;;;;;;;;10217241;28;20027;-73
2022/09/18 08:21:18;;;;;;;1.48;0.80;;;;;;;;;;10233960;29;20058;-73
2022/09/18 08:26:18;;;;;;;2.67;1.52;;;;;;;;;;10219320;28;20027;-73
2022/09/18 08:31:18;;;;;;;1.98;1.13;;;;;;;;;;10208307;29;20074;-73
2022/09/18 08:36:19;;;;;;;1.23;0.90;;;;;;;;;;10217818;29;20051;-74
2022/09/18 08:41:26;;;;;;;1.30;0.90;;;;;;;;;;10235076;29;20034;-73
2022/09/18 08:46:40;;;;;;;3.88;1.80;;;;;;;;;;10219181;29;20569;-76
2022/09/18 08:52:02;;;;;;;1.80;0.63;;;;;;;;;;10217106;29;20061;-73
2022/09/18 08:57:06;;;;;;;5.25;0.80;;;;;;;;;;10229654;29;20094;-73
2022/09/18 09:02:20;;;;;;;0.65;0.30;;;;;;;;;;10215684;28;20524;-73
2022/09/18 09:07:20;;;;;;;1.95;0.60;;;;;;;;;;10219778;28;20031;-73
2022/09/18 09:12:35;;;;;;;4.75;0.88;;;;;;;;;;10222902;28;20038;-74
2022/09/18 09:17:36;;;;;;;3.35;1.00;;;;;;;;;;10223641;29;20038;-73
2022/09/18 09:22:39;;;;;;;1.38;0.55;;;;;;;;;;10221679;29;20031;-75
2022/09/18 09:27:42;;;;;;;0.98;0.77;;;;;;;;;;10223142;29;20061;-78
2022/09/18 09:32:42;;;;;;;3.00;1.45;;;;;;;;;;10231031;28;20078;-73
2022/09/18 09:37:45;;;;;;;1.13;0.60;;;;;;;;;;10217683;29;20130;-73
2022/09/18 09:42:59;;;;;;;1.83;0.88;;;;;;;;;;10218607;29;20026;-72
2022/09/18 09:48:00;;;;;;;0.80;0.60;;;;;;;;;;10224177;29;20026;-73
2022/09/18 09:53:03;;;;;;;3.58;0.93;;;;;;;;;;10240729;28;20043;-72
2022/09/18 09:58:11;;;;;;;2.47;0.70;;;;;;;;;;10224131;28;20023;-73
2022/09/18 10:03:30;;;;;;;2.33;1.27;;;;;;;;;;10237165;28;20027;-74
2022/09/18 10:08:34;;;;;;;3.72;0.95;;;;;;;;;;10237652;28;20027;-74
2022/09/18 10:13:55;;;;;;;1.33;1.08;;;;;;;;;;10223630;29;20041;-73
2022/09/18 10:18:55;;;;;;;4.22;1.58;;;;;;;;;;10221888;28;20035;-72
2022/09/18 10:24:05;;;;;;;4.75;2.97;;;;;;;;;;10224034;28;20047;-73
2022/09/18 10:29:05;;;;;;;3.72;2.40;;;;;;;;;;10239258;28;20038;-77
2022/09/18 10:34:25;;;;;;;2.78;1.95;;;;;;;;;;10195708;29;20062;-74
2022/09/18 10:39:28;;;;;;;4.20;1.70;;;;;;;;;;10193315;29;20475;-74
2022/09/18 10:44:39;;;;;;;3.35;2.10;;;;;;;;;;10195346;29;20063;-76
2022/09/18 10:49:48;;;;;;;2.05;1.70;;;;;;;;;;10204480;28;20036;-74
2022/09/18 10:54:59;;;;;;;3.75;2.58;;;;;;;;;;10193759;29;20031;-77
2022/09/18 11:00:00;;;;;;;5.30;2.65;;;;;;;;;;10193470;29;20024;-73
2022/09/18 11:05:01;;;;;;;4.53;2.35;;;;;;;;;;10194013;29;20541;-76
2022/09/18 11:10:08;;;;;;;2.42;2.03;;;;;;;;;;10188180;29;20106;-75
2022/09/18 11:15:13;;;;;;;2.30;2.05;;;;;;;;;;10198018;29;20467;-73
2022/09/18 11:20:22;;;;;;;3.90;2.40;;;;;;;;;;10218296;29;20027;-76
2022/09/18 11:25:25;;;;;;;2.67;2.45;;;;;;;;;;10201559;29;20059;-73
2022/09/18 11:30:30;;;;;;;3.90;2.72;;;;;;;;;;10189686;29;20019;-73
2022/09/18 11:35:30;;;;;;;7.95;2.90;;;;;;;;;;10201176;29;20063;-72
2022/09/18 11:40:52;;;;;;;3.58;1.95;;;;;;;;;;10201814;29;20090;-73
2022/09/18 11:46:11;;;;;;;3.03;2.13;;;;;;;;;;10202076;29;20159;-75
2022/09/18 11:51:25;;;;;;;2.55;1.95;;;;;;;;;;10218168;28;20028;-72
2022/09/18 11:56:30;;;;;;;3.17;2.30;;;;;;;;;;10201325;29;20024;-73
2022/09/18 12:01:30;;;;;;;6.50;2.22;;;;;;;;;;10201249;29;20023;-73
2022/09/18 12:06:38;;;;;;;6.55;2.70;;;;;;;;;;10218272;29;20494;-77
2022/09/18 12:11:39;;;;;;;;;;;;;;;;;;10203200;29;20026;-73
2022/09/18 12:16:47;;;;;;;5.63;2.40;;;;;;;;;;10199241;29;19918;-73
2022/09/18 12:21:47;;;;;;;4.50;2.88;;;;;;;;;;10216993;29;20027;-73
2022/09/18 12:26:47;;;;;;;2.45;2.15;;;;;;;;;;10201442;29;20044;-74
2022/09/18 12:31:51;;;;;;;2.88;2.40;;;;;;;;;;10209225;29;20059;-73
2022/09/18 12:36:54;;;;;;;4.13;2.45;;;;;;;;;;10223099;29;20328;-73
2022/09/18 12:42:10;;;;;;;5.65;2.40;;;;;;;;;;10236499;28;20019;-77
2022/09/18 12:47:15;;;;;;;3.72;2.28;;;;;;;;;;10249134;29;20046;-75
2022/09/18 12:52:27;;;;;;;2.83;2.22;;;;;;;;;;10232118;29;20023;-72
2022/09/18 12:57:33;;;;;;;7.93;2.97;;;;;;;;;;10246164;28;20086;-74
2022/09/18 13:02:45;;;;;;;3.15;2.17;;;;;;;;;;10226892;29;20030;-73
2022/09/18 13:07:51;;;;;;;1.60;1.50;;;;;;;;;;10246504;28;20438;-74
2022/09/18 13:12:52;;;;;;;3.28;1.70;;;;;;;;;;10243389;29;20023;-74
2022/09/18 13:17:56;;;;;;;1.95;1.50;;;;;;;;;;10244576;28;20046;-73
2022/09/18 13:22:56;;;;;;;2.80;1.60;;;;;;;;;;10229139;29;20038;-74
2022/09/18 13:27:58;;;;;;;2.05;1.33;;;;;;;;;;10247144;29;20543;-74
2022/09/18 13:32:59;;;;;;;1.23;0.95;;;;;;;;;;10228403;28;20399;-76
2022/09/18 13:38:05;;;;;;;4.07;1.52;;;;;;;;;;10227705;28;20031;-73
2022/09/18 13:43:18;;;;;;;3.60;1.55;;;;;;;;;;10226913;28;20023;-72
2022/09/18 13:48:21;;;;;;;4.03;1.42;;;;;;;;;;10245079;29;20027;-73
2022/09/18 13:53:29;;;;;;;4.07;1.02;;;;;;;;;;10242663;28;20019;-73
2022/09/18 13:58:29;;;;;;;7.85;1.10;;;;;;;;;;10244659;29;20019;-73
2022/09/18 14:03:30;;;;;;;1.60;1.50;;;;;;;;;;10244136;28;20023;-73
2022/09/18 14:08:36;;;;;;;3.00;1.10;;;;;;;;;;10227073;29;20035;-75
2022/09/18 14:13:45;;;;;;;4.00;1.52;;;;;;;;;;10225863;29;20022;-74
2022/09/18 14:18:48;;;;;;;;;;;;;;;;;;10220779;29;20067;-74
2022/09/18 14:23:49;;;;;;;1.58;1.20;;;;;;;;;;10236351;28;19915;-75
2022/09/18 14:28:49;;;;;;;1.23;1.10;;;;;;;;;;10224008;28;20027;-75
2022/09/18 14:33:50;;;;;;;2.03;1.47;;;;;;;;;;10199602;29;20044;-76
2022/09/18 14:38:50;;;;;;;3.92;1.50;;;;;;;;;;10198908;29;20502;-75
2022/09/18 14:43:55;;;;;;;2.53;1.50;;;;;;;;;;10199587;29;20222;-75
2022/09/18 14:48:56;;;;;;;2.83;1.30;;;;;;;;;;10197596;29;20030;-73
2022/09/18 14:53:57;;;;;;;5.03;1.25;;;;;;;;;;10197336;29;20036;-74
2022/09/18 14:59:04;;;;;;;1.70;1.35;;;;;;;;;;10194790;29;20028;-76
2022/09/18 15:04:06;;;;;;;0.80;0.80;;;;;;;;;;10210111;28;20451;-74
2022/09/18 15:09:08;;;;;;;1.88;1.10;;;;;;;;;;10194644;29;20059;-75
2022/09/18 15:14:25;;;;;;;4.38;1.00;;;;;;;;;;10212403;28;20410;-75
2022/09/18 15:19:27;;;;;;;1.73;1.08;;;;;;;;;;10197460;29;20086;-75
2022/09/18 15:24:27;;;;;;;2.78;1.15;;;;;;;;;;10194102;29;20062;-74
2022/09/18 15:29:30;;;;;;;2.22;1.30;;;;;;;;;;10196848;29;20043;-78
2022/09/18 15:34:35;;;;;;;4.95;1.30;;;;;;;;;;10228195;29;20125;-78
2022/09/18 15:39:38;;;;;;;1.85;1.00;;;;;;;;;;10218736;29;20062;-77
2022/09/18 15:44:38;;;;;;;1.40;1.30;;;;;;;;;;10219613;29;20034;-79
2022/09/18 15:49:38;;;;;;;1.55;1.40;;;;;;;;;;10218813;28;20029;-74
2022/09/18 15:54:59;;;;;;;4.20;1.53;;;;;;;;;;10234097;29;20063;-75
2022/09/18 15:59:59;;;;;;;1.45;1.23;;;;;;;;;;10231044;28;20274;-73
2022/09/18 16:05:18;;;;;;;6.75;1.30;;;;;;;;;;10218174;29;20023;-73
2022/09/18 16:10:35;;;;;;;2.20;1.38;;;;;;;;;;10215455;29;20137;-74
2022/09/18 16:15:35;;;;;;;2.45;1.30;;;;;;;;;;10219112;28;20030;-74
2022/09/18 16:20:36;;;;;;;2.25;1.48;;;;;;;;;;10219869;28;20034;-74
2022/09/18 16:25:40;;;;;;;3.13;1.65;;;;;;;;;;10216220;29;20046;-74
2022/09/18 16:30:41;;;;;;;6.15;1.90;;;;;;;;;;10234490;29;20070;-72
2022/09/18 16:35:41;;;;;;;3.38;1.65;;;;;;;;;;10217462;28;20102;-78
2022/09/18 16:40:42;;;;;;;6.95;2.92;;;;;;;;;;10220535;29;20121;-76
2022/09/18 16:45:43;;;;;;;2.95;1.83;;;;;;;;;;10217904;29;20490;-73
2022/09/18 16:50:43;;;;;;;4.28;1.73;;;;;;;;;;10233182;28;20034;-77
2022/09/18 16:55:46;;;;;;;4.82;2.20;;;;;;;;;;10233714;29;20170;-81
2022/09/18 17:00:47;;;;;;;9.70;6.82;;;;;;;;;;10218461;29;20045;-76
2022/09/18 17:05:47;;;;;;;3.38;2.40;;;;;;;;;;10218528;29;20041;-77
2022/09/18 17:10:47;;;;;;;4.28;2.70;;;;;;;;;;10219941;29;20039;-77
2022/09/18 17:15:48;;;;;;;8.10;3.72;;;;;;;;;;10233986;28;20486;-75
2022/09/18 17:20:48;;;;;;;4.33;3.07;;;;;;;;;;10217877;29;20347;-75
2022/09/18 17:25:49;;;;;;;10.60;4.83;;;;;;;;;;10218599;29;20038;-78
2022/09/18 17:30:53;;;;;;;7.67;3.43;;;;;;;;;;10221771;28;20275;-74
2022/09/18 17:35:53;;;;;;;8.85;3.95;;;;;;;;;;10242020;29;20028;-74
2022/09/18 17:40:57;;;;;;;121.93;111.38;;;;;;;;;;10224930;28;20027;-75
2022/09/18 17:45:58;;;;;;;6.40;2.67;;;;;;;;;;10238407;28;20126;-74
2022/09/18 17:50:59;;;;;;;8.52;2.55;;;;;;;;;;10221803;29;20063;-73
2022/09/18 17:56:00;;;;;;;14.57;3.22;;;;;;;;;;10224389;28;20035;-80
2022/09/18 18:01:07;;;;;;;7.82;2.28;;;;;;;;;;10223987;29;20031;-73
2022/09/18 18:06:09;;;;;;;7.25;2.70;;;;;;;;;;10224338;29;20055;-75
2022/09/18 18:11:11;;;;;;;7.05;3.05;;;;;;;;;;10238536;29;20062;-80
2022/09/18 18:16:13;;;;;;;5.00;2.72;;;;;;;;;;10229962;28;20039;-78
2022/09/18 18:21:13;;;;;;;3.92;2.80;;;;;;;;;;10219806;29;20027;-73
2022/09/18 18:26:14;;;;;;;5.50;2.90;;;;;;;;;;10220983;28;20034;-74
2022/09/18 18:31:15;;;;;;;10.15;3.90;;;;;;;;;;10221159;28;20425;-76
2022/09/18 18:36:20;;;;;;;4.97;2.65;;;;;;;;;;10222319;28;20043;-74
2022/09/18 18:41:21;;;;;;;8.88;3.15;;;;;;;;;;10221879;28;20023;-74
2022/09/18 18:46:23;;;;;;;3.30;2.08;;;;;;;;;;10222467;29;20459;-77
2022/09/18 18:51:24;;;;;;;3.80;2.50;;;;;;;;;;10234391;28;20055;-74
2022/09/18 18:56:24;;;;;;;9.40;7.00;;;;;;;;;;10205955;29;20469;-78
2022/09/18 19:01:24;;;;;;;22.42;20.55;;;;;;;;;;10213612;29;20071;-75
2022/09/18 19:06:25;;;;;;;4.60;2.83;;;;;;;;;;10218969;29;20023;-79
2022/09/18 19:11:27;;;;;;;4.03;2.80;;;;;;;;;;10232024;29;20490;-74
2022/09/18 19:16:28;;;;;;;6.18;2.55;;;;;;;;;;10215333;28;20039;-73
2022/09/18 19:21:28;;;;;;;8.55;2.30;;;;;;;;;;10239207;29;20042;-78
2022/09/18 19:26:29;;;;;;;3.38;2.17;;;;;;;;;;10219001;28;20027;-75
2022/09/18 19:31:29;;;;;;;6.15;2.70;;;;;;;;;;10211179;28;20126;-76
2022/09/18 19:36:30;;;;;;;5.20;2.57;;;;;;;;;;10223951;28;20108;-74
2022/09/18 19:41:39;;;;;;;5.90;2.63;;;;;;;;;;10220666;29;20453;-73
2022/09/18 19:46:40;;;;;;;3.40;2.40;;;;;;;;;;10215389;28;20038;-74
2022/09/18 19:51:40;;;;;;;3.90;2.42;;;;;;;;;;10232638;28;20022;-75
2022/09/18 19:56:50;;;;;;;2.88;1.92;;;;;;;;;;10219407;28;20031;-75
2022/09/18 20:01:52;;;;;;;2.75;1.60;;;;;;;;;;10219952;28;20052;-74
2022/09/18 20:06:52;;;;;;;139.00;126.38;;;;;;;;;;10220941;28;20019;-73
2022/09/18 20:11:52;;;;;;;1.50;1.17;;;;;;;;;;10200481;29;20446;-74
2022/09/18 20:16:53;;;;;;;2.45;1.70;;;;;;;;;;10211171;28;20028;-73
2022/09/18 20:21:53;;;;;;;4.07;2.55;;;;;;;;;;10226002;29;20023;-74
2022/09/18 20:26:55;;;;;;;2.20;1.45;;;;;;;;;;10218115;29;20110;-74
2022/09/18 20:31:56;;;;;;;4.30;1.58;;;;;;;;;;10217131;29;20137;-80
2022/09/18 20:36:57;;;;;;;1.13;1.02;;;;;;;;;;10222563;29;20477;-73
2022/09/18 20:41:59;;;;;;;3.47;0.70;;;;;;;;;;10240672;29;20051;-80
2022/09/18 20:47:01;;;;;;;2.03;1.02;;;;;;;;;;10216264;29;20406;-75
2022/09/18 20:52:02;;;;;;;1.05;0.95;;;;;;;;;;10222811;29;20478;-74
2022/09/18 20:57:03;;;;;;;1.58;1.10;;;;;;;;;;10242187;29;20059;-74
2022/09/18 21:02:04;;;;;;;1.67;1.48;;;;;;;;;;10244686;28;20474;-74
2022/09/18 21:07:05;;;;;;;2.00;1.70;;;;;;;;;;10249673;29;20034;-74
2022/09/18 21:12:05;;;;;;;3.53;1.42;;;;;;;;;;10233806;29;20033;-74
2022/09/18 21:17:07;;;;;;;2.43;1.73;;;;;;;;;;10231717;29;20651;-74
2022/09/18 21:22:07;;;;;;;2.88;1.65;;;;;;;;;;10248774;29;20302;-75
2022/09/18 21:27:08;;;;;;;1.45;1.35;;;;;;;;;;10233614;29;20560;-75
2022/09/18 21:32:09;;;;;;;3.35;1.55;;;;;;;;;;10221468;29;20043;-75
2022/09/18 21:37:10;;;;;;;1.98;1.05;;;;;;;;;;10231996;29;20023;-75
2022/09/18 21:42:11;;;;;;;2.78;1.30;;;;;;;;;;10246051;28;20019;-75
2022/09/18 21:47:11;;;;;;;2.75;1.30;;;;;;;;;;10248408;29;20011;-74
2022/09/18 21:52:13;;;;;;;2.27;1.57;;;;;;;;;;10246592;29;20031;-75
2022/09/18 21:57:15;;;;;;;1.45;1.30;;;;;;;;;;10249158;29;20393;-80
2022/09/18 22:02:20;;;;;;;1.88;1.40;;;;;;;;;;10231433;29;20019;-76
2022/09/18 22:07:23;;;;;;;2.40;1.00;;;;;;;;;;10247599;29;20098;-73
2022/09/18 22:12:23;;;;;;;1.25;1.15;;;;;;;;;;10228645;29;20023;-77
2022/09/18 22:17:24;;;;;;;4.47;1.70;;;;;;;;;;10231059;28;20023;-73
2022/09/18 22:22:25;;;;;;;1.65;1.10;;;;;;;;;;10246328;29;20027;-76
2022/09/18 22:27:26;;;;;;;2.70;1.63;;;;;;;;;;10246480;28;20394;-74
2022/09/18 22:32:27;;;;;;;2.13;1.13;;;;;;;;;;10230099;28;20055;-75
2022/09/18 22:37:27;;;;;;;1.63;1.38;;;;;;;;;;10228117;28;20074;-78
2022/09/18 22:42:28;;;;;;;2.50;1.10;;;;;;;;;;10229686;29;20082;-73
2022/09/18 22:47:28;;;;;;;1.58;1.40;;;;;;;;;;10230191;29;20081;-74
2022/09/18 22:52:29;;;;;;;3.20;2.20;;;;;;;;;;10246921;29;20035;-73
2022/09/18 22:57:29;;;;;;;4.07;1.90;;;;;;;;;;10247599;28;20023;-74
2022/09/18 23:02:30;;;;;;;1.50;1.38;;;;;;;;;;10228963;29;20012;-74
2022/09/18 23:07:31;;;;;;;6.18;2.00;;;;;;;;;;10244727;28;20027;-74
2022/09/18 23:12:31;;;;;;;1.48;1.38;;;;;;;;;;10228855;29;20019;-76
2022/09/18 23:17:31;;;;;;;1.43;1.30;;;;;;;;;;10228541;29;20019;-74
2022/09/18 23:22:32;;;;;;;1.27;1.17;;;;;;;;;;10244135;28;20019;-75
2022/09/18 23:27:32;;;;;;;2.03;1.85;;;;;;;;;;10228501;28;20027;-73
2022/09/18 23:32:32;;;;;;;2.22;1.30;;;;;;;;;;10245463;29;20063;-73
2022/09/18 23:37:33;;;;;;;8.65;5.57;;;;;;;;;;10245322;29;20104;-75
2022/09/18 23:42:33;;;;;;;4.03;1.48;;;;;;;;;;10243653;29;20015;-76
2022/09/18 23:47:36;;;;;;;1.30;1.00;;;;;;;;;;10227708;29;20132;-79
2022/09/18 23:52:36;;;;;;;2.35;1.10;;;;;;;;;;10241422;28;20027;-75
2022/09/18 23:57:36;;;;;;;1.13;1.02;;;;;;;;;;10243534;28;20023;-73
